createdAt,value
2018-05-06T00:00:00.426Z,50.26
2018-05-06T00:01:02.938Z,50.27
2018-05-06T00:02:05.425Z,50.31
2018-05-06T00:03:07.909Z,50.32
2018-05-06T00:04:10.392Z,50.35
2018-05-06T00:05:12.881Z,50.33
2018-05-06T00:06:15.398Z,50.37
2018-05-06T00:07:17.865Z,50.39
2018-05-06T00:08:20.334Z,50.40
2018-05-06T00:09:22.817Z,50.44
2018-05-06T00:10:25.309Z,50.48
2018-05-06T00:11:27.832Z,50.48
2018-05-06T00:12:30.322Z,50.53
2018-05-06T00:13:32.805Z,50.63
2018-05-06T00:14:35.294Z,50.65
2018-05-06T00:15:37.786Z,50.66
2018-05-06T00:16:40.293Z,50.69
2018-05-06T00:17:42.803Z,50.71
2018-05-06T00:18:45.274Z,50.72
2018-05-06T00:19:47.783Z,50.74
2018-05-06T00:20:50.265Z,50.75
2018-05-06T00:21:52.780Z,50.78
2018-05-06T00:22:55.272Z,50.81
2018-05-06T00:23:57.756Z,50.83
2018-05-06T00:25:00.238Z,50.82
2018-05-06T00:26:02.724Z,50.84
2018-05-06T00:27:05.224Z,50.88
2018-05-06T00:28:07.751Z,50.90
2018-05-06T00:29:10.310Z,50.94
2018-05-06T00:30:12.870Z,50.98
2018-05-06T00:31:15.342Z,50.98
2018-05-06T00:32:17.888Z,50.99
2018-05-06T00:33:20.395Z,51.00
2018-05-06T00:34:22.907Z,51.04
2018-05-06T00:35:25.394Z,51.03
2018-05-06T00:36:29.047Z,51.05
2018-05-06T00:37:31.580Z,51.06
2018-05-06T00:38:34.168Z,51.10
2018-05-06T00:39:36.663Z,51.15
2018-05-06T00:40:39.153Z,51.25
2018-05-06T00:41:41.642Z,51.35
2018-05-06T00:42:44.157Z,51.37
2018-05-06T00:43:46.661Z,51.37
2018-05-06T00:44:49.147Z,51.41
2018-05-06T00:45:51.629Z,51.44
2018-05-06T00:46:54.116Z,51.42
2018-05-06T00:47:56.700Z,51.42
2018-05-06T00:48:59.259Z,51.48
2018-05-06T00:50:01.749Z,51.47
2018-05-06T00:51:04.277Z,51.48
2018-05-06T00:52:06.760Z,51.49
2018-05-06T00:53:09.289Z,51.51
2018-05-06T00:54:23.734Z,51.53
2018-05-06T00:55:26.220Z,51.52
2018-05-06T00:56:28.725Z,51.53
2018-05-06T00:57:31.289Z,51.54
2018-05-06T00:58:33.806Z,51.57
2018-05-06T00:59:36.295Z,51.58
2018-05-06T01:00:38.864Z,51.59
2018-05-06T01:01:41.356Z,51.59
2018-05-06T01:02:43.864Z,51.60
2018-05-06T01:03:46.391Z,51.63
2018-05-06T01:04:48.881Z,51.63
2018-05-06T01:05:51.381Z,51.62
2018-05-06T01:06:53.876Z,51.65
2018-05-06T01:07:56.405Z,51.74
2018-05-06T01:08:58.967Z,51.73
2018-05-06T01:10:01.531Z,51.78
2018-05-06T01:11:04.051Z,51.83
2018-05-06T01:12:06.642Z,51.82
2018-05-06T01:13:09.206Z,51.79
2018-05-06T01:14:11.769Z,51.76
2018-05-06T01:15:14.261Z,51.76
2018-05-06T01:16:16.747Z,51.76
2018-05-06T01:17:19.256Z,51.76
2018-05-06T01:18:21.897Z,51.78
2018-05-06T01:19:24.431Z,51.78
2018-05-06T01:20:26.904Z,51.81
2018-05-06T01:21:29.392Z,51.86
2018-05-06T01:22:31.881Z,51.89
2018-05-06T01:23:34.371Z,51.90
2018-05-06T01:24:36.876Z,51.89
2018-05-06T01:25:39.365Z,51.88
2018-05-06T01:26:41.862Z,51.87
2018-05-06T01:27:44.349Z,51.91
2018-05-06T01:28:46.855Z,51.89
2018-05-06T01:29:49.354Z,51.88
2018-05-06T01:30:51.845Z,51.89
2018-05-06T01:31:54.323Z,51.89
2018-05-06T01:32:56.794Z,51.88
2018-05-06T01:33:59.277Z,51.89
2018-05-06T01:35:01.770Z,51.89
2018-05-06T01:36:04.271Z,51.94
2018-05-06T01:37:06.747Z,51.98
2018-05-06T01:38:09.237Z,51.97
2018-05-06T01:39:12.513Z,51.99
2018-05-06T01:40:15.055Z,52.03
2018-05-06T01:41:17.528Z,52.03
2018-05-06T01:42:20.075Z,52.02
2018-05-06T01:43:22.631Z,52.02
2018-05-06T01:44:25.190Z,52.03
2018-05-06T01:45:27.704Z,52.04
2018-05-06T01:46:30.192Z,52.13
2018-05-06T01:47:32.771Z,52.23
2018-05-06T01:48:35.330Z,52.25
2018-05-06T01:49:37.889Z,52.28
2018-05-06T01:50:40.451Z,52.34
2018-05-06T01:51:42.924Z,52.41
2018-05-06T01:52:45.407Z,52.39
2018-05-06T01:53:47.892Z,52.40
2018-05-06T01:54:50.380Z,52.42
2018-05-06T01:55:52.870Z,52.42
2018-05-06T01:56:55.342Z,52.45
2018-05-06T01:57:57.843Z,52.46
2018-05-06T01:59:00.337Z,52.47
2018-05-06T02:00:02.812Z,52.49
2018-05-06T02:01:05.314Z,52.50
2018-05-06T02:02:07.858Z,52.50
2018-05-06T02:03:10.359Z,52.47
2018-05-06T02:04:12.836Z,52.40
2018-05-06T02:05:15.323Z,52.38
2018-05-06T02:06:17.831Z,52.37
2018-05-06T02:07:20.319Z,52.35
2018-05-06T02:08:22.808Z,52.34
2018-05-06T02:09:25.320Z,52.34
2018-05-06T02:10:27.795Z,52.38
2018-05-06T02:11:30.304Z,52.41
2018-05-06T02:12:32.794Z,52.46
2018-05-06T02:13:35.281Z,52.51
2018-05-06T02:14:37.766Z,52.50
2018-05-06T02:15:40.261Z,52.48
2018-05-06T02:16:42.759Z,52.47
2018-05-06T02:17:45.263Z,52.48
2018-05-06T02:18:47.767Z,52.43
2018-05-06T02:19:50.234Z,52.42
2018-05-06T02:20:52.736Z,52.43
2018-05-06T02:21:55.259Z,52.43
2018-05-06T02:22:57.763Z,52.45
2018-05-06T02:24:00.254Z,52.43
2018-05-06T02:25:02.755Z,52.41
2018-05-06T02:26:05.268Z,52.42
2018-05-06T02:27:07.784Z,52.43
2018-05-06T02:28:10.263Z,52.43
2018-05-06T02:29:12.731Z,52.45
2018-05-06T02:30:15.261Z,52.46
2018-05-06T02:31:17.762Z,52.49
2018-05-06T02:32:20.255Z,52.47
2018-05-06T02:33:22.760Z,52.50
2018-05-06T02:34:25.279Z,52.50
2018-05-06T02:35:27.857Z,52.49
2018-05-06T02:36:30.361Z,52.53
2018-05-06T02:37:32.921Z,52.51
2018-05-06T02:38:35.408Z,52.52
2018-05-06T02:39:37.893Z,52.66
2018-05-06T02:40:40.401Z,52.63
2018-05-06T02:41:42.959Z,52.67
2018-05-06T02:42:45.442Z,52.63
2018-05-06T02:43:47.941Z,52.64
2018-05-06T02:44:50.531Z,52.63
2018-05-06T02:45:53.025Z,52.62
2018-05-06T02:46:55.554Z,52.63
2018-05-06T02:47:58.040Z,52.69
2018-05-06T02:49:00.571Z,52.72
2018-05-06T02:50:03.130Z,52.69
2018-05-06T02:51:05.629Z,52.69
2018-05-06T02:52:08.148Z,52.76
2018-05-06T02:53:10.667Z,52.70
2018-05-06T02:54:13.166Z,52.72
2018-05-06T02:55:15.726Z,52.82
2018-05-06T02:56:18.213Z,52.75
2018-05-06T02:57:20.700Z,52.75
2018-05-06T02:58:23.221Z,52.76
2018-05-06T02:59:25.766Z,52.78
2018-05-06T03:00:28.322Z,52.80
2018-05-06T03:01:30.883Z,52.80
2018-05-06T03:02:33.362Z,52.81
2018-05-06T03:03:35.845Z,52.82
2018-05-06T03:04:38.348Z,52.83
2018-05-06T03:05:40.858Z,52.81
2018-05-06T03:06:43.360Z,52.79
2018-05-06T03:07:45.936Z,52.81
2018-05-06T03:08:48.433Z,52.82
2018-05-06T03:09:50.950Z,52.82
2018-05-06T03:10:53.451Z,52.84
2018-05-06T03:11:55.941Z,52.88
2018-05-06T03:12:58.433Z,52.88
2018-05-06T03:14:00.988Z,52.90
2018-05-06T03:15:03.551Z,52.95
2018-05-06T03:16:06.110Z,52.93
2018-05-06T03:17:08.671Z,52.91
2018-05-06T03:18:11.171Z,52.93
2018-05-06T03:19:13.661Z,52.90
2018-05-06T03:20:16.148Z,52.90
2018-05-06T03:21:18.618Z,52.86
2018-05-06T03:22:21.101Z,52.89
2018-05-06T03:23:23.723Z,52.90
2018-05-06T03:24:26.282Z,52.88
2018-05-06T03:25:28.845Z,52.87
2018-05-06T03:26:31.357Z,52.89
2018-05-06T03:27:33.858Z,52.90
2018-05-06T03:28:36.424Z,52.90
2018-05-06T03:29:38.925Z,52.92
2018-05-06T03:30:41.428Z,52.95
2018-05-06T03:31:43.932Z,52.94
2018-05-06T03:32:46.421Z,52.96
2018-05-06T03:33:48.912Z,52.95
2018-05-06T03:34:51.406Z,52.94
2018-05-06T03:35:53.930Z,52.96
2018-05-06T03:36:56.439Z,52.96
2018-05-06T03:37:58.984Z,52.95
2018-05-06T03:39:01.499Z,52.95
2018-05-06T03:40:04.010Z,52.92
2018-05-06T03:41:06.505Z,52.90
2018-05-06T03:42:08.989Z,52.97
2018-05-06T03:43:11.495Z,52.95
2018-05-06T03:44:13.971Z,52.94
2018-05-06T03:45:16.476Z,52.91
2018-05-06T03:46:18.947Z,52.89
2018-05-06T03:47:21.414Z,52.88
2018-05-06T03:48:23.915Z,52.88
2018-05-06T03:49:26.416Z,52.89
2018-05-06T03:50:28.906Z,52.88
2018-05-06T03:51:31.378Z,52.91
2018-05-06T03:52:33.853Z,52.89
2018-05-06T03:53:36.341Z,52.91
2018-05-06T03:54:38.814Z,52.93
2018-05-06T03:55:41.321Z,52.95
2018-05-06T03:57:04.556Z,52.94
2018-05-06T03:58:18.807Z,52.94
2018-05-06T04:01:01.221Z,53.07
2018-05-06T04:03:51.677Z,53.04
2018-05-06T04:04:54.187Z,53.02
2018-05-06T04:05:56.706Z,53.04
2018-05-06T04:06:59.227Z,53.04
2018-05-06T04:08:01.732Z,53.08
2018-05-06T04:09:04.229Z,53.08
2018-05-06T04:10:06.712Z,53.05
2018-05-06T04:11:09.208Z,53.03
2018-05-06T04:12:11.714Z,53.18
2018-05-06T04:13:14.186Z,53.16
2018-05-06T04:14:16.686Z,53.10
2018-05-06T04:15:19.184Z,53.14
2018-05-06T04:16:21.703Z,53.17
2018-05-06T04:17:24.191Z,53.20
2018-05-06T04:18:26.681Z,53.17
2018-05-06T04:19:29.231Z,53.16
2018-05-06T04:20:31.725Z,53.15
2018-05-06T04:21:34.227Z,53.15
2018-05-06T04:22:36.738Z,53.17
2018-05-06T04:23:39.229Z,53.17
2018-05-06T04:24:41.698Z,53.24
2018-05-06T04:25:44.166Z,53.28
2018-05-06T04:26:46.729Z,53.26
2018-05-06T04:27:49.192Z,53.23
2018-05-06T04:28:51.695Z,53.24
2018-05-06T04:29:54.209Z,53.29
2018-05-06T04:30:56.696Z,53.30
2018-05-06T04:31:59.164Z,53.31
2018-05-06T04:33:01.662Z,53.34
2018-05-06T04:34:04.153Z,53.38
2018-05-06T04:35:06.670Z,53.47
2018-05-06T04:36:09.149Z,53.48
2018-05-06T04:37:11.658Z,53.50
2018-05-06T04:38:14.126Z,53.51
2018-05-06T04:39:16.619Z,53.52
2018-05-06T04:40:19.138Z,53.53
2018-05-06T04:41:21.614Z,53.55
2018-05-06T04:42:24.131Z,53.57
2018-05-06T04:43:26.617Z,53.58
2018-05-06T04:44:29.110Z,53.59
2018-05-06T04:45:31.600Z,53.60
2018-05-06T04:46:34.085Z,53.60
2018-05-06T04:47:36.593Z,53.62
2018-05-06T04:48:39.081Z,53.63
2018-05-06T04:49:41.568Z,53.67
2018-05-06T04:50:44.067Z,53.68
2018-05-06T04:51:46.565Z,53.73
2018-05-06T04:52:49.074Z,53.74
2018-05-06T04:53:51.550Z,53.79
2018-05-06T04:54:54.018Z,53.80
2018-05-06T04:55:56.490Z,53.83
2018-05-06T04:56:59.000Z,53.86
2018-05-06T04:58:01.489Z,53.93
2018-05-06T04:59:04.000Z,53.95
2018-05-06T05:00:06.507Z,53.95
2018-05-06T05:01:08.996Z,53.95
2018-05-06T05:02:11.528Z,53.95
2018-05-06T05:03:14.015Z,53.94
2018-05-06T05:04:16.508Z,53.97
2018-05-06T05:05:18.976Z,53.97
2018-05-06T05:06:21.480Z,53.97
2018-05-06T05:07:23.950Z,53.97
2018-05-06T05:08:26.466Z,53.99
2018-05-06T05:09:29.014Z,54.02
2018-05-06T05:10:31.445Z,54.00
2018-05-06T05:11:33.963Z,54.01
2018-05-06T05:12:36.463Z,54.01
2018-05-06T05:13:38.935Z,54.09
2018-05-06T05:14:41.417Z,54.08
2018-05-06T05:15:43.903Z,54.08
2018-05-06T05:16:46.410Z,54.11
2018-05-06T05:17:48.887Z,54.12
2018-05-06T05:18:51.367Z,54.15
2018-05-06T05:19:53.850Z,54.16
2018-05-06T05:20:56.449Z,54.18
2018-05-06T05:21:58.881Z,54.18
2018-05-06T05:23:01.388Z,54.15
2018-05-06T05:24:03.863Z,54.19
2018-05-06T05:25:06.345Z,54.19
2018-05-06T05:26:08.848Z,54.18
2018-05-06T05:27:11.357Z,54.18
2018-05-06T05:28:13.833Z,54.18
2018-05-06T05:29:16.301Z,54.23
2018-05-06T05:30:18.807Z,54.25
2018-05-06T05:31:21.310Z,54.28
2018-05-06T05:32:23.786Z,54.25
2018-05-06T05:33:26.290Z,54.24
2018-05-06T05:34:28.810Z,54.26
2018-05-06T05:35:31.311Z,54.24
2018-05-06T05:36:33.801Z,54.29
2018-05-06T05:37:36.292Z,54.25
2018-05-06T05:38:38.781Z,54.26
2018-05-06T05:39:41.250Z,54.26
2018-05-06T05:40:43.757Z,54.27
2018-05-06T05:41:46.258Z,54.28
2018-05-06T05:42:48.748Z,54.31
2018-05-06T05:43:51.247Z,54.32
2018-05-06T05:44:53.728Z,54.32
2018-05-06T05:45:56.276Z,54.33
2018-05-06T05:46:58.754Z,54.32
2018-05-06T05:48:01.222Z,54.28
2018-05-06T05:49:03.721Z,54.32
2018-05-06T05:50:06.230Z,54.30
2018-05-06T05:51:08.720Z,54.38
2018-05-06T05:52:11.194Z,54.35
2018-05-06T05:53:13.704Z,54.38
2018-05-06T05:54:16.208Z,54.39
2018-05-06T05:55:18.716Z,54.37
2018-05-06T05:56:21.213Z,54.39
2018-05-06T05:57:23.686Z,54.42
2018-05-06T05:58:26.257Z,54.41
2018-05-06T05:59:28.771Z,54.38
2018-05-06T06:00:31.298Z,54.40
2018-05-06T06:01:33.871Z,54.36
2018-05-06T06:02:36.296Z,54.37
2018-05-06T06:03:38.784Z,54.42
2018-05-06T06:04:41.289Z,54.47
2018-05-06T06:05:43.776Z,54.44
2018-05-06T06:06:46.257Z,54.43
2018-05-06T06:07:48.776Z,54.45
2018-05-06T06:08:51.260Z,54.46
2018-05-06T06:09:53.781Z,54.51
2018-05-06T06:10:56.271Z,54.53
2018-05-06T06:11:58.758Z,54.51
2018-05-06T06:13:01.266Z,54.53
2018-05-06T06:14:03.827Z,54.58
2018-05-06T06:15:06.329Z,54.57
2018-05-06T06:16:08.837Z,54.56
2018-05-06T06:17:11.341Z,54.57
2018-05-06T06:18:13.863Z,54.59
2018-05-06T06:19:16.393Z,54.63
2018-05-06T06:20:18.877Z,54.65
2018-05-06T06:21:21.366Z,54.68
2018-05-06T06:22:23.861Z,54.68
2018-05-06T06:23:26.363Z,54.65
2018-05-06T06:24:28.929Z,54.69
2018-05-06T06:25:31.397Z,54.68
2018-05-06T06:26:33.884Z,54.66
2018-05-06T06:27:36.367Z,54.66
2018-05-06T06:28:38.853Z,54.73
2018-05-06T06:29:41.358Z,54.69
2018-05-06T06:30:43.865Z,54.70
2018-05-06T06:31:46.363Z,54.74
2018-05-06T06:32:48.848Z,54.77
2018-05-06T06:33:51.369Z,54.76
2018-05-06T06:34:53.854Z,54.76
2018-05-06T06:35:56.341Z,54.79
2018-05-06T06:36:58.846Z,54.79
2018-05-06T06:38:01.342Z,54.78
2018-05-06T06:39:03.844Z,54.84
2018-05-06T06:40:06.341Z,54.82
2018-05-06T06:41:08.830Z,54.82
2018-05-06T06:42:11.309Z,54.86
2018-05-06T06:43:13.782Z,54.83
2018-05-06T06:44:16.280Z,54.90
2018-05-06T06:45:18.777Z,54.98
2018-05-06T06:46:21.279Z,54.99
2018-05-06T06:47:23.758Z,54.95
2018-05-06T06:48:26.261Z,54.90
2018-05-06T06:49:28.825Z,54.96
2018-05-06T06:50:31.386Z,55.01
2018-05-06T06:51:33.863Z,55.03
2018-05-06T06:52:36.401Z,55.06
2018-05-06T06:53:38.962Z,55.07
2018-05-06T06:54:41.457Z,55.12
2018-05-06T06:55:44.005Z,55.10
2018-05-06T06:56:46.485Z,55.16
2018-05-06T06:57:48.987Z,55.16
2018-05-06T06:58:51.474Z,55.10
2018-05-06T06:59:53.971Z,55.12
2018-05-06T07:00:56.461Z,55.13
2018-05-06T07:01:58.963Z,55.17
2018-05-06T07:03:01.472Z,55.10
2018-05-06T07:04:03.951Z,55.07
2018-05-06T07:05:06.485Z,55.12
2018-05-06T07:06:08.998Z,55.13
2018-05-06T07:07:11.529Z,54.89
2018-05-06T07:08:14.039Z,53.67
2018-05-06T07:09:16.529Z,52.71
2018-05-06T07:10:19.014Z,51.23
2018-05-06T07:11:21.546Z,50.19
2018-05-06T07:12:24.021Z,49.10
2018-05-06T07:13:26.579Z,48.46
2018-05-06T07:14:29.088Z,48.11
2018-05-06T07:15:31.701Z,47.93
2018-05-06T07:16:34.174Z,47.10
2018-05-06T07:17:36.673Z,46.44
2018-05-06T07:18:39.243Z,45.00
2018-05-06T07:19:41.801Z,45.19
2018-05-06T07:20:44.290Z,44.85
2018-05-06T07:21:46.795Z,43.99
2018-05-06T07:22:49.297Z,44.27
2018-05-06T07:23:51.825Z,44.25
2018-05-06T07:24:54.328Z,44.59
2018-05-06T07:25:56.845Z,44.50
2018-05-06T07:26:59.326Z,44.26
2018-05-06T07:28:01.874Z,44.11
2018-05-06T07:29:04.368Z,43.00
2018-05-06T07:30:06.857Z,43.07
2018-05-06T07:31:09.344Z,42.80
2018-05-06T07:32:11.860Z,42.83
2018-05-06T07:33:14.352Z,42.89
2018-05-06T07:34:16.822Z,43.18
2018-05-06T07:35:19.324Z,43.35
2018-05-06T07:36:21.804Z,41.74
2018-05-06T07:37:24.305Z,42.00
2018-05-06T07:38:26.811Z,41.62
2018-05-06T07:39:29.301Z,40.92
2018-05-06T07:40:31.809Z,40.78
2018-05-06T07:41:34.449Z,40.02
2018-05-06T07:42:36.964Z,40.04
2018-05-06T07:43:39.456Z,39.77
2018-05-06T07:44:41.941Z,39.93
2018-05-06T07:45:44.507Z,39.87
2018-05-06T07:46:47.012Z,39.60
2018-05-06T07:47:49.492Z,39.91
2018-05-06T07:48:52.010Z,39.53
2018-05-06T07:49:54.482Z,39.64
2018-05-06T07:50:57.004Z,39.49
2018-05-06T07:51:59.498Z,39.39
2018-05-06T07:53:02.085Z,39.87
2018-05-06T07:54:04.554Z,39.91
2018-05-06T07:55:07.138Z,39.53
2018-05-06T07:56:09.700Z,39.56
2018-05-06T07:57:12.200Z,39.64
2018-05-06T07:58:14.685Z,39.48
2018-05-06T07:59:17.190Z,39.67
2018-05-06T08:00:19.663Z,39.61
2018-05-06T08:01:22.168Z,39.63
2018-05-06T08:02:24.729Z,39.75
2018-05-06T08:03:27.217Z,39.93
2018-05-06T08:04:29.722Z,39.98
2018-05-06T08:05:32.203Z,39.97
2018-05-06T08:06:34.704Z,39.95
2018-05-06T08:07:37.176Z,40.01
2018-05-06T08:08:39.668Z,40.18
2018-05-06T08:09:42.157Z,40.31
2018-05-06T08:10:44.716Z,40.47
2018-05-06T08:11:47.202Z,40.66
2018-05-06T08:12:49.685Z,40.81
2018-05-06T08:13:52.173Z,41.05
2018-05-06T08:14:54.641Z,41.22
2018-05-06T08:15:57.122Z,41.36
2018-05-06T08:16:59.643Z,41.41
2018-05-06T08:18:02.144Z,41.46
2018-05-06T08:19:04.618Z,41.61
2018-05-06T08:20:07.091Z,41.84
2018-05-06T08:21:09.614Z,42.03
2018-05-06T08:22:12.109Z,42.12
2018-05-06T08:23:14.603Z,42.21
2018-05-06T08:24:17.112Z,42.27
2018-05-06T08:25:19.600Z,42.33
2018-05-06T08:26:22.119Z,42.48
2018-05-06T08:27:24.624Z,42.60
2018-05-06T08:28:27.108Z,42.75
2018-05-06T08:29:29.597Z,42.85
2018-05-06T08:30:32.109Z,42.93
2018-05-06T08:31:34.609Z,43.02
2018-05-06T08:32:37.157Z,43.08
2018-05-06T08:33:39.713Z,43.15
2018-05-06T08:34:42.272Z,43.23
2018-05-06T08:35:44.791Z,43.31
2018-05-06T08:36:47.270Z,43.39
2018-05-06T08:37:49.756Z,43.43
2018-05-06T08:38:52.234Z,43.50
2018-05-06T08:39:54.744Z,43.56
2018-05-06T08:40:57.267Z,43.61
2018-05-06T08:41:59.764Z,43.69
2018-05-06T08:43:02.303Z,43.75
2018-05-06T08:44:04.790Z,43.79
2018-05-06T08:45:07.292Z,43.84
2018-05-06T08:46:09.787Z,43.91
2018-05-06T08:47:12.257Z,43.98
2018-05-06T08:48:14.779Z,44.03
2018-05-06T08:49:17.272Z,44.08
2018-05-06T08:50:19.760Z,44.12
2018-05-06T08:51:22.270Z,44.16
2018-05-06T08:52:24.756Z,44.22
2018-05-06T08:53:27.264Z,44.26
2018-05-06T08:54:29.733Z,44.33
2018-05-06T08:55:32.239Z,44.39
2018-05-06T08:56:34.720Z,44.40
2018-05-06T08:57:37.226Z,44.41
2018-05-06T08:58:39.693Z,44.43
2018-05-06T08:59:42.220Z,44.47
2018-05-06T09:00:44.686Z,44.52
2018-05-06T09:01:47.198Z,44.58
2018-05-06T09:02:49.762Z,44.61
2018-05-06T09:03:52.320Z,44.65
2018-05-06T09:04:54.877Z,44.72
2018-05-06T09:05:57.441Z,44.77
2018-05-06T09:06:59.910Z,44.79
2018-05-06T09:08:02.408Z,44.85
2018-05-06T09:09:05.696Z,44.88
2018-05-06T09:10:08.201Z,44.90
2018-05-06T09:11:10.758Z,44.94
2018-05-06T09:12:13.178Z,44.98
2018-05-06T09:13:15.687Z,44.99
2018-05-06T09:14:18.188Z,45.00
2018-05-06T09:15:20.655Z,45.07
2018-05-06T09:16:23.121Z,45.11
2018-05-06T09:17:25.625Z,45.13
2018-05-06T09:18:28.135Z,45.18
2018-05-06T09:19:30.670Z,45.21
2018-05-06T09:20:33.159Z,45.22
2018-05-06T09:21:35.644Z,45.24
2018-05-06T09:22:38.194Z,45.27
2018-05-06T09:23:40.685Z,45.30
2018-05-06T09:24:43.215Z,45.34
2018-05-06T09:25:45.724Z,45.37
2018-05-06T09:26:48.230Z,45.42
2018-05-06T09:27:50.787Z,45.45
2018-05-06T09:28:53.353Z,45.49
2018-05-06T09:29:55.911Z,45.54
2018-05-06T09:30:58.470Z,45.57
2018-05-06T09:32:00.961Z,45.60
2018-05-06T09:33:03.425Z,45.64
2018-05-06T09:34:05.943Z,45.68
2018-05-06T09:35:08.420Z,45.69
2018-05-06T09:36:10.905Z,45.72
2018-05-06T09:37:13.386Z,45.73
2018-05-06T09:38:15.874Z,45.77
2018-05-06T09:39:18.385Z,45.78
2018-05-06T09:40:20.865Z,45.80
2018-05-06T09:41:23.362Z,45.82
2018-05-06T09:42:25.956Z,45.84
2018-05-06T09:43:28.868Z,45.89
2018-05-06T09:44:31.855Z,45.91
2018-05-06T09:45:34.414Z,45.93
2018-05-06T09:46:37.290Z,45.95
2018-05-06T09:47:41.039Z,45.98
2018-05-06T09:48:43.887Z,46.02
2018-05-06T09:49:46.399Z,46.03
2018-05-06T09:50:48.885Z,46.05
2018-05-06T09:51:51.397Z,46.07
2018-05-06T09:52:53.879Z,46.07
2018-05-06T09:53:56.389Z,46.09
2018-05-06T09:54:58.878Z,46.13
2018-05-06T09:56:01.409Z,46.15
2018-05-06T09:57:03.909Z,46.17
2018-05-06T09:58:06.439Z,46.18
2018-05-06T09:59:08.915Z,46.21
2018-05-06T10:00:11.404Z,46.24
2018-05-06T10:01:14.003Z,46.25
2018-05-06T10:02:16.508Z,46.25
2018-05-06T10:03:19.019Z,46.27
2018-05-06T10:04:21.513Z,46.35
2018-05-06T10:05:24.015Z,46.32
2018-05-06T10:06:26.520Z,46.32
2018-05-06T10:07:29.357Z,46.34
2018-05-06T10:08:31.887Z,46.35
2018-05-06T10:09:34.523Z,46.37
2018-05-06T10:10:37.045Z,46.39
2018-05-06T10:11:39.522Z,46.42
2018-05-06T10:12:42.029Z,46.48
2018-05-06T10:13:44.513Z,46.50
2018-05-06T10:14:47.065Z,46.53
2018-05-06T10:15:49.619Z,46.56
2018-05-06T10:16:52.071Z,46.56
2018-05-06T10:17:54.596Z,46.59
2018-05-06T10:18:57.162Z,46.61
2018-05-06T10:19:59.719Z,46.63
2018-05-06T10:21:02.211Z,46.64
2018-05-06T10:22:04.755Z,46.64
2018-05-06T10:23:07.284Z,46.66
2018-05-06T10:24:09.772Z,46.68
2018-05-06T10:25:12.271Z,46.69
2018-05-06T10:26:14.803Z,46.71
2018-05-06T10:27:17.320Z,46.74
2018-05-06T10:28:19.827Z,46.76
2018-05-06T10:29:22.316Z,46.75
2018-05-06T10:30:24.821Z,46.76
2018-05-06T10:31:27.306Z,46.77
2018-05-06T10:32:29.824Z,46.79
2018-05-06T10:33:32.352Z,46.82
2018-05-06T10:34:34.853Z,46.83
2018-05-06T10:35:37.359Z,46.85
2018-05-06T10:36:39.840Z,46.87
2018-05-06T10:37:42.344Z,46.87
2018-05-06T10:38:44.837Z,46.88
2018-05-06T10:39:47.315Z,46.91
2018-05-06T10:40:49.896Z,46.91
2018-05-06T10:41:52.404Z,46.91
2018-05-06T10:42:54.898Z,46.93
2018-05-06T10:43:57.431Z,46.94
2018-05-06T10:44:59.927Z,46.96
2018-05-06T10:46:02.427Z,46.96
2018-05-06T10:47:04.969Z,46.97
2018-05-06T10:48:07.445Z,46.99
2018-05-06T10:49:10.001Z,47.00
2018-05-06T10:50:12.462Z,47.02
2018-05-06T10:51:14.969Z,47.03
2018-05-06T10:52:17.473Z,47.04
2018-05-06T10:53:20.003Z,47.05
2018-05-06T10:54:22.472Z,47.06
2018-05-06T10:55:25.116Z,47.08
2018-05-06T10:56:27.722Z,47.07
2018-05-06T10:57:30.397Z,47.09
2018-05-06T10:58:32.878Z,47.09
2018-05-06T10:59:35.462Z,47.10
2018-05-06T11:00:37.948Z,47.12
2018-05-06T11:01:40.446Z,47.13
2018-05-06T11:02:42.941Z,47.15
2018-05-06T11:03:45.443Z,47.16
2018-05-06T11:04:47.929Z,47.17
2018-05-06T11:05:50.424Z,47.17
2018-05-06T11:06:52.950Z,47.19
2018-05-06T11:07:55.422Z,47.20
2018-05-06T11:08:57.892Z,47.20
2018-05-06T11:10:00.362Z,47.20
2018-05-06T11:11:02.855Z,47.20
2018-05-06T11:12:05.368Z,47.23
2018-05-06T11:13:07.930Z,47.25
2018-05-06T11:14:10.432Z,47.26
2018-05-06T11:15:12.971Z,47.25
2018-05-06T11:16:15.493Z,47.25
2018-05-06T11:17:18.066Z,47.27
2018-05-06T11:18:20.567Z,47.27
2018-05-06T11:19:23.067Z,47.28
2018-05-06T11:20:25.552Z,47.29
2018-05-06T11:21:28.304Z,47.30
2018-05-06T11:22:30.804Z,47.29
2018-05-06T11:23:33.321Z,47.30
2018-05-06T11:24:35.824Z,47.30
2018-05-06T11:25:38.340Z,47.33
2018-05-06T11:26:40.806Z,47.33
2018-05-06T11:27:43.361Z,47.34
2018-05-06T11:28:45.873Z,47.36
2018-05-06T11:29:48.361Z,47.37
2018-05-06T11:30:50.852Z,47.36
2018-05-06T11:31:53.322Z,47.37
2018-05-06T11:32:55.844Z,47.37
2018-05-06T11:33:58.311Z,47.38
2018-05-06T11:35:00.796Z,47.39
2018-05-06T11:36:03.337Z,47.40
2018-05-06T11:37:05.806Z,47.40
2018-05-06T11:38:08.274Z,47.41
2018-05-06T11:39:10.800Z,47.42
2018-05-06T11:40:13.305Z,47.44
2018-05-06T11:41:15.803Z,47.45
2018-05-06T11:42:18.381Z,47.45
2018-05-06T11:43:21.042Z,47.45
2018-05-06T11:44:23.536Z,47.45
2018-05-06T11:45:26.023Z,47.47
2018-05-06T11:46:28.744Z,47.48
2018-05-06T11:47:31.240Z,47.49
2018-05-06T11:48:33.744Z,47.49
2018-05-06T11:49:36.277Z,47.50
2018-05-06T11:50:38.783Z,47.51
2018-05-06T11:51:41.262Z,47.52
2018-05-06T11:52:43.729Z,47.52
2018-05-06T11:53:46.199Z,47.54
2018-05-06T11:54:48.876Z,47.54
2018-05-06T11:55:51.362Z,47.55
2018-05-06T11:56:53.864Z,47.57
2018-05-06T11:57:56.368Z,47.57
2018-05-06T11:58:58.848Z,47.58
2018-05-06T12:00:01.344Z,47.58
2018-05-06T12:01:03.828Z,47.59
2018-05-06T12:02:06.711Z,47.60
2018-05-06T12:03:09.576Z,47.60
2018-05-06T12:04:12.489Z,47.61
2018-05-06T12:05:15.013Z,47.61
2018-05-06T12:06:17.499Z,47.62
2018-05-06T12:07:20.026Z,47.63
2018-05-06T12:08:22.513Z,47.64
2018-05-06T12:09:25.046Z,47.64
2018-05-06T12:10:27.606Z,47.65
2018-05-06T12:11:30.090Z,47.67
2018-05-06T12:12:32.566Z,47.67
2018-05-06T12:13:35.079Z,47.68
2018-05-06T12:14:37.571Z,47.69
2018-05-06T12:15:40.151Z,47.69
2018-05-06T12:16:42.631Z,47.70
2018-05-06T12:17:45.103Z,47.71
2018-05-06T12:18:47.604Z,47.71
2018-05-06T12:19:50.112Z,47.71
2018-05-06T12:20:52.596Z,47.73
2018-05-06T12:21:55.107Z,47.75
2018-05-06T12:22:57.582Z,47.75
2018-05-06T12:24:00.135Z,47.75
2018-05-06T12:25:02.919Z,47.76
2018-05-06T12:26:05.798Z,47.75
2018-05-06T12:27:08.362Z,47.76
2018-05-06T12:28:10.867Z,47.77
2018-05-06T12:29:13.393Z,47.78
2018-05-06T12:30:17.470Z,47.79
2018-05-06T12:31:19.956Z,47.79
2018-05-06T12:32:22.465Z,47.81
2018-05-06T12:33:24.953Z,47.81
2018-05-06T12:34:27.435Z,47.82
2018-05-06T12:35:29.940Z,47.82
2018-05-06T12:36:32.411Z,47.83
2018-05-06T12:37:34.910Z,47.84
2018-05-06T12:38:37.412Z,47.84
2018-05-06T12:39:39.917Z,47.85
2018-05-06T12:40:42.446Z,47.85
2018-05-06T12:41:44.986Z,47.86
2018-05-06T12:42:47.582Z,47.86
2018-05-06T12:43:50.098Z,47.86
2018-05-06T12:44:52.704Z,47.87
2018-05-06T12:45:55.264Z,47.87
2018-05-06T12:46:57.926Z,47.88
2018-05-06T12:48:00.466Z,47.89
2018-05-06T12:49:03.044Z,47.89
2018-05-06T12:50:05.530Z,47.89
2018-05-06T12:51:08.021Z,47.89
2018-05-06T12:52:10.587Z,47.90
2018-05-06T12:53:13.084Z,47.90
2018-05-06T12:54:15.610Z,47.92
2018-05-06T12:55:18.174Z,47.92
2018-05-06T12:56:20.650Z,47.93
2018-05-06T12:57:23.172Z,47.93
2018-05-06T12:58:25.913Z,47.94
2018-05-06T12:59:28.439Z,47.95
2018-05-06T13:00:30.952Z,47.95
2018-05-06T13:01:33.453Z,47.95
2018-05-06T13:02:35.950Z,47.95
2018-05-06T13:03:38.441Z,47.96
2018-05-06T13:04:41.043Z,47.97
2018-05-06T13:05:44.397Z,47.97
2018-05-06T13:06:47.100Z,47.97
2018-05-06T13:07:52.121Z,47.98
2018-05-06T13:08:54.991Z,47.98
2018-05-06T13:09:57.558Z,47.98
2018-05-06T13:11:00.088Z,47.99
2018-05-06T13:12:02.627Z,47.99
2018-05-06T13:13:05.150Z,47.99
2018-05-06T13:14:07.663Z,47.99
2018-05-06T13:15:10.185Z,47.99
2018-05-06T13:16:12.696Z,47.99
2018-05-06T13:17:15.189Z,47.99
2018-05-06T13:18:17.780Z,48.00
2018-05-06T13:19:20.284Z,48.00
2018-05-06T13:20:22.841Z,48.02
2018-05-06T13:21:25.376Z,48.01
2018-05-06T13:22:27.885Z,48.02
2018-05-06T13:23:30.373Z,48.01
2018-05-06T13:24:32.871Z,48.03
2018-05-06T13:25:35.346Z,48.03
2018-05-06T13:26:37.818Z,48.03
2018-05-06T13:27:40.302Z,48.03
2018-05-06T13:28:42.785Z,48.03